Time;durP1;ratioP1;P1;durP2;ratioP2;P2;SDS_P1;SDS_P2;PMS_P1;PMS_P2;Temp;Humidity;BMP_temperature;BMP_pressure;BME280_temperature;BME280_humidity;BME280_pressure;Samples;Min_cycle;Max_cycle;Signal;HPM_P1;HPM_P2
2023/03/30 00:00:28;;;;;;;9.82;2.33;;;9.90;98.70;;;;;;5085748;28;20263;-87
2023/03/30 00:02:55;;;;;;;4.55;2.03;;;9.90;98.70;;;;;;5080326;28;20207;-87
2023/03/30 00:05:22;;;;;;;6.78;2.30;;;9.90;99.00;;;;;;5092254;27;20205;-87
2023/03/30 00:07:49;;;;;;;5.13;2.08;;;9.90;99.20;;;;;;5084943;28;21050;-86
2023/03/30 00:10:18;;;;;;;7.05;2.42;;;9.80;99.10;;;;;;5084500;28;20204;-87
2023/03/30 00:12:49;;;;;;;7.78;2.50;;;9.90;99.30;;;;;;5065886;28;20200;-86
2023/03/30 00:15:18;;;;;;;8.02;2.35;;;9.80;99.30;;;;;;5091920;28;20208;-87
2023/03/30 00:17:45;;;;;;;13.95;2.28;;;9.80;99.30;;;;;;5091420;28;20205;-87
2023/03/30 00:20:15;;;;;;;7.80;2.30;;;9.80;99.30;;;;;;5095212;28;20204;-87
2023/03/30 00:22:44;;;;;;;6.38;2.40;;;9.90;98.90;;;;;;5091785;28;20265;-87
2023/03/30 00:25:16;;;;;;;7.03;2.25;;;9.80;98.90;;;;;;5080717;28;20209;-87
2023/03/30 00:27:44;;;;;;;9.98;2.53;;;9.80;99.00;;;;;;5077077;28;20201;-87
2023/03/30 00:30:15;;;;;;;5.40;2.00;;;9.80;98.80;;;;;;5081390;28;20189;-87
2023/03/30 00:32:42;;;;;;;7.82;1.98;;;9.80;99.00;;;;;;5085994;28;20700;-87
2023/03/30 00:35:11;;;;;;;8.13;2.05;;;9.80;99.00;;;;;;5086569;28;20198;-87
2023/03/30 00:37:38;;;;;;;7.55;2.47;;;9.80;98.90;;;;;;5070865;28;20213;-87
2023/03/30 00:40:08;;;;;;;6.88;2.22;;;9.80;99.00;;;;;;5078502;28;20197;-86
2023/03/30 00:42:35;;;;;;;5.95;2.15;;;9.70;98.90;;;;;;5086558;28;20211;-87
2023/03/30 00:45:21;;;;;;;9.93;2.47;;;9.70;99.00;;;;;;5094905;28;20688;-87
2023/03/30 00:48:01;;;;;;;6.28;2.00;;;9.70;99.30;;;;;;5087140;28;20197;-87
2023/03/30 00:50:34;;;;;;;5.15;1.83;;;9.80;98.90;;;;;;5084790;28;20220;-87
2023/03/30 00:53:07;;;;;;;8.85;2.58;;;9.80;98.80;;;;;;5080690;28;20213;-87
2023/03/30 00:55:37;;;;;;;8.00;2.30;;;9.90;98.50;;;;;;5067183;28;20243;-86
2023/03/30 00:58:05;;;;;;;5.47;2.20;;;9.90;98.10;;;;;;5077336;28;20755;-89
2023/03/30 01:03:18;;;;;;;10.48;2.65;;;10.00;97.90;;;;;;5080094;28;20211;-87
2023/03/30 01:05:46;;;;;;;9.07;2.63;;;9.90;98.00;;;;;;5091170;28;20232;-87
2023/03/30 01:08:15;;;;;;;9.68;2.25;;;10.00;97.70;;;;;;5097188;28;20292;-87
2023/03/30 01:10:43;;;;;;;7.47;1.92;;;10.00;97.20;;;;;;5082214;28;20197;-87
2023/03/30 01:13:10;;;;;;;7.63;2.33;;;10.00;96.90;;;;;;5084875;28;20196;-87
2023/03/30 01:15:46;;;;;;;9.48;2.28;;;9.90;97.30;;;;;;5095944;28;20196;-86
2023/03/30 01:18:25;;;;;;;7.65;2.03;;;9.90;97.20;;;;;;5085252;28;20196;-88
2023/03/30 01:21:30;;;;;;;9.77;1.75;;;9.90;97.20;;;;;;5086656;28;20205;-87
2023/03/30 01:24:41;;;;;;;7.80;2.08;;;9.80;97.00;;;;;;5082962;28;20254;-87
2023/03/30 01:33:45;;;;;;;7.50;2.08;;;9.90;96.10;;;;;;5090236;28;20204;-87
2023/03/30 01:36:44;;;;;;;5.18;2.00;;;10.00;95.70;;;;;;5082388;28;20231;-89
2023/03/30 01:39:26;;;;;;;4.07;1.92;;;10.10;95.00;;;;;;5076569;28;20248;-87
2023/03/30 01:41:59;;;;;;;5.93;1.90;;;10.30;94.10;;;;;;5075911;28;20190;-87
2023/03/30 01:44:34;;;;;;;9.93;2.13;;;10.40;93.80;;;;;;5087165;28;20196;-87
2023/03/30 01:47:07;;;;;;;7.50;1.88;;;10.50;93.30;;;;;;5092523;28;20196;-87
2023/03/30 01:49:40;;;;;;;6.32;2.08;;;10.70;92.50;;;;;;5096598;28;20192;-87
2023/03/30 01:52:14;;;;;;;4.72;1.73;;;10.80;92.10;;;;;;5097280;28;20204;-88
2023/03/30 01:54:46;;;;;;;9.50;1.80;;;10.80;91.90;;;;;;5083877;28;20229;-87
2023/03/30 01:57:16;;;;;;;7.50;1.98;;;10.90;91.50;;;;;;5084823;28;20224;-89
2023/03/30 01:59:50;;;;;;;6.15;1.98;;;10.90;91.30;;;;;;5091441;28;20293;-87
2023/03/30 02:02:20;;;;;;;4.28;1.77;;;10.90;91.40;;;;;;5089370;28;20276;-88
2023/03/30 02:04:48;;;;;;;7.20;2.10;;;11.00;91.20;;;;;;5081854;28;20197;-88
2023/03/30 02:07:19;;;;;;;7.05;2.13;;;11.00;91.00;;;;;;5082954;28;20203;-87
2023/03/30 02:09:51;;;;;;;6.45;1.88;;;11.00;90.50;;;;;;5078093;28;20205;-87
2023/03/30 02:12:20;;;;;;;7.72;2.03;;;11.10;90.60;;;;;;5090059;28;20197;-87
2023/03/30 02:14:48;;;;;;;13.63;3.10;;;11.30;89.90;;;;;;5071137;28;20201;-88
2023/03/30 02:17:18;;;;;;;10.60;2.13;;;11.50;87.10;;;;;;5084655;28;20244;-88
2023/03/30 02:19:46;;;;;;;5.40;2.10;;;11.70;85.10;;;;;;5082423;28;20198;-87
2023/03/30 02:22:15;;;;;;;7.78;1.95;;;11.60;85.50;;;;;;5077475;28;20225;-87
2023/03/30 02:24:44;;;;;;;6.57;2.17;;;11.60;85.80;;;;;;5085916;28;20228;-88
2023/03/30 02:27:13;;;;;;;12.02;2.35;;;11.60;85.60;;;;;;5078751;28;20205;-87
2023/03/30 02:29:44;;;;;;;11.85;1.90;;;11.60;86.20;;;;;;5080066;28;20249;-88
2023/03/30 02:32:17;;;;;;;7.40;2.25;;;11.70;85.50;;;;;;5075320;28;20243;-87
2023/03/30 02:35:08;;;;;;;8.63;2.38;;;11.70;85.30;;;;;;5080227;28;20189;-87
2023/03/30 02:37:52;;;;;;;7.28;2.25;;;11.60;86.50;;;;;;5077397;28;20225;-87
2023/03/30 02:40:31;;;;;;;4.95;2.00;;;11.70;85.60;;;;;;5071504;28;20578;-88
2023/03/30 02:43:22;;;;;;;11.57;2.25;;;11.60;85.90;;;;;;5081042;28;20230;-88
2023/03/30 02:45:53;;;;;;;11.07;2.45;;;11.50;87.00;;;;;;5080790;28;20279;-88
2023/03/30 02:48:39;;;;;;;10.95;2.50;;;11.50;87.80;;;;;;5078527;28;20201;-88
2023/03/30 02:51:35;;;;;;;9.32;2.08;;;11.50;89.20;;;;;;5074660;28;20204;-89
2023/03/30 02:54:12;;;;;;;9.48;2.38;;;11.50;90.20;;;;;;5084650;28;20714;-88
2023/03/30 02:56:47;;;;;;;5.38;1.98;;;11.50;90.60;;;;;;5066817;28;20221;-88
2023/03/30 02:59:19;;;;;;;8.10;2.67;;;11.50;90.60;;;;;;5083363;28;20570;-88
2023/03/30 03:01:52;;;;;;;10.65;2.83;;;11.50;90.90;;;;;;5085127;28;20219;-87
2023/03/30 03:04:21;;;;;;;10.00;3.10;;;11.70;90.70;;;;;;5079781;28;20199;-88
2023/03/30 03:06:51;;;;;;;12.02;2.97;;;12.00;90.80;;;;;;5072906;28;20227;-88
2023/03/30 03:09:18;;;;;;;10.02;2.67;;;12.10;90.80;;;;;;5086222;28;20280;-87
2023/03/30 03:11:46;;;;;;;12.52;2.83;;;12.20;90.80;;;;;;5082813;28;20667;-87
2023/03/30 03:14:13;;;;;;;11.32;2.83;;;12.20;90.80;;;;;;5086156;28;20207;-88
2023/03/30 03:16:41;;;;;;;13.40;2.92;;;12.10;90.80;;;;;;5078690;28;20227;-87
2023/03/30 03:19:08;;;;;;;10.23;2.92;;;12.10;91.10;;;;;;5075942;28;20568;-88
2023/03/30 03:21:35;;;;;;;11.02;2.58;;;12.00;91.00;;;;;;5080268;28;20216;-87
2023/03/30 03:24:03;;;;;;;16.88;2.72;;;12.00;91.70;;;;;;5083233;28;20253;-88
2023/03/30 03:26:30;;;;;;;10.55;2.67;;;12.00;92.00;;;;;;5076370;28;20194;-87
2023/03/30 03:28:57;;;;;;;11.75;2.78;;;12.00;92.30;;;;;;5083388;28;20206;-87
2023/03/30 03:31:25;;;;;;;17.35;3.20;;;12.20;92.70;;;;;;5077938;28;20201;-88
2023/03/30 03:33:54;;;;;;;18.30;3.17;;;12.20;93.60;;;;;;5075737;28;20194;-88
2023/03/30 03:36:22;;;;;;;16.50;3.45;;;12.10;94.40;;;;;;5083195;28;20227;-87
2023/03/30 03:38:49;;;;;;;9.60;2.75;;;12.00;95.30;;;;;;5060369;28;20244;-88
2023/03/30 03:41:16;;;;;;;11.23;2.90;;;11.80;96.10;;;;;;5083621;28;20239;-88
2023/03/30 03:43:43;;;;;;;13.57;3.05;;;11.70;96.60;;;;;;5082204;28;20204;-88
2023/03/30 03:46:10;;;;;;;11.65;3.00;;;11.70;97.20;;;;;;5073640;28;20205;-88
2023/03/30 03:48:39;;;;;;;12.45;2.97;;;11.60;97.80;;;;;;5084861;28;20193;-88
2023/03/30 03:51:10;;;;;;;14.52;3.88;;;11.60;98.30;;;;;;5078331;28;20198;-88
2023/03/30 03:53:37;;;;;;;15.25;3.20;;;11.50;98.30;;;;;;5081879;28;20559;-88
2023/03/30 03:56:03;;;;;;;15.50;3.33;;;11.30;98.80;;;;;;5078439;28;20197;-88
2023/03/30 03:58:30;;;;;;;12.45;3.60;;;11.30;99.50;;;;;;5076485;28;20216;-88
2023/03/30 04:01:01;;;;;;;15.60;3.85;;;11.20;99.90;;;;;;5076146;28;20205;-87
2023/03/30 04:03:28;;;;;;;12.98;3.50;;;11.20;99.90;;;;;;5093153;28;20280;-87
2023/03/30 04:05:59;;;;;;;14.07;3.53;;;11.30;99.90;;;;;;5082673;28;20201;-87
2023/03/30 04:08:29;;;;;;;9.63;3.60;;;11.40;99.90;;;;;;5090648;28;20225;-87
2023/03/30 04:10:56;;;;;;;18.00;3.92;;;11.30;99.90;;;;;;5085450;28;20836;-87
2023/03/30 04:13:23;;;;;;;19.38;4.35;;;11.20;99.90;;;;;;5080143;28;20204;-88
2023/03/30 04:15:50;;;;;;;17.05;3.78;;;11.10;99.90;;;;;;5088381;28;20200;-89
2023/03/30 04:18:18;;;;;;;14.38;2.97;;;11.20;99.90;;;;;;5087379;28;20220;-87
2023/03/30 04:20:46;;;;;;;15.23;3.88;;;11.10;99.90;;;;;;5089384;28;20205;-87
2023/03/30 04:23:20;;;;;;;18.02;4.57;;;11.20;99.90;;;;;;5090861;28;20299;-87
2023/03/30 04:25:50;;;;;;;13.77;3.72;;;11.20;99.90;;;;;;5086131;28;20193;-89
2023/03/30 04:28:20;;;;;;;14.57;3.65;;;11.20;99.90;;;;;;5083899;28;20197;-87
2023/03/30 04:30:47;;;;;;;13.20;3.88;;;11.10;99.90;;;;;;5083435;28;20669;-88
2023/03/30 04:33:14;;;;;;;16.80;3.92;;;11.10;99.90;;;;;;5089987;28;20196;-88
2023/03/30 04:35:41;;;;;;;11.23;3.45;;;11.00;99.90;;;;;;5085971;28;20211;-88
2023/03/30 04:38:08;;;;;;;15.15;3.97;;;10.90;99.90;;;;;;5078345;28;20590;-86
2023/03/30 04:40:35;;;;;;;15.73;3.67;;;10.90;99.90;;;;;;5083960;28;20196;-86
2023/03/30 04:43:04;;;;;;;12.50;3.80;;;10.90;99.90;;;;;;5084642;28;20856;-91
2023/03/30 04:45:31;;;;;;;16.30;4.00;;;11.00;99.90;;;;;;5082085;28;20243;-87
2023/03/30 04:47:58;;;;;;;18.42;3.80;;;11.00;99.90;;;;;;5082704;28;20197;-86
2023/03/30 04:50:25;;;;;;;19.67;4.03;;;11.10;99.90;;;;;;5086225;28;20550;-88
2023/03/30 04:52:52;;;;;;;15.90;4.68;;;11.10;99.90;;;;;;5092714;28;20196;-89
2023/03/30 04:55:19;;;;;;;16.50;3.50;;;11.10;99.90;;;;;;5079938;28;20188;-87
2023/03/30 04:57:45;;;;;;;20.73;3.88;;;11.20;99.90;;;;;;5087453;28;20227;-86
2023/03/30 05:00:16;;;;;;;16.08;3.92;;;11.20;99.90;;;;;;5085936;28;20197;-88
2023/03/30 05:02:43;;;;;;;14.00;3.97;;;11.20;99.90;;;;;;5081097;28;20684;-86
2023/03/30 05:05:10;;;;;;;16.50;4.22;;;11.20;99.90;;;;;;5084312;28;20193;-85
2023/03/30 05:07:38;;;;;;;15.43;3.80;;;11.10;99.90;;;;;;5075593;28;20217;-86
2023/03/30 05:10:06;;;;;;;14.02;3.30;;;11.10;99.90;;;;;;5083765;28;20193;-86
2023/03/30 05:12:33;;;;;;;14.43;4.28;;;11.10;99.90;;;;;;5087022;28;20201;-87
2023/03/30 05:15:00;;;;;;;15.68;3.97;;;11.00;99.90;;;;;;5078131;28;20193;-86
2023/03/30 05:17:29;;;;;;;17.55;3.88;;;11.00;99.90;;;;;;5060465;28;20220;-85
2023/03/30 05:19:56;;;;;;;13.68;3.65;;;11.00;99.90;;;;;;5076775;28;20209;-84
2023/03/30 05:22:23;;;;;;;12.52;3.42;;;11.00;99.90;;;;;;5077348;28;20221;-86
2023/03/30 05:24:50;;;;;;;15.32;3.88;;;11.10;99.90;;;;;;5078475;28;20201;-90
2023/03/30 05:27:18;;;;;;;12.60;3.80;;;11.10;99.90;;;;;;5086713;28;20189;-86
2023/03/30 05:29:45;;;;;;;14.35;3.78;;;11.10;99.90;;;;;;5079759;28;20193;-84
2023/03/30 05:32:12;;;;;;;15.57;3.70;;;11.00;99.90;;;;;;5076911;28;20252;-83
2023/03/30 05:34:41;;;;;;;13.85;3.95;;;11.00;99.90;;;;;;5083138;28;20200;-83
2023/03/30 05:37:08;;;;;;;10.55;3.85;;;11.00;99.90;;;;;;5079027;28;20208;-83
2023/03/30 05:39:35;;;;;;;15.85;3.92;;;11.00;99.90;;;;;;5082286;28;20202;-83
2023/03/30 05:42:04;;;;;;;15.23;4.07;;;10.90;99.90;;;;;;5089918;28;20197;-90
2023/03/30 05:44:31;;;;;;;14.90;3.97;;;10.90;99.90;;;;;;5086365;28;20661;-86
2023/03/30 05:46:58;;;;;;;15.77;3.80;;;10.90;99.90;;;;;;5060811;28;20236;-86
2023/03/30 05:49:25;;;;;;;18.55;3.90;;;10.90;99.90;;;;;;5075130;28;20197;-85
2023/03/30 05:51:53;;;;;;;13.35;4.40;;;10.90;99.90;;;;;;5079765;28;20209;-87
2023/03/30 05:54:21;;;;;;;16.30;4.25;;;10.90;99.90;;;;;;5081213;28;20196;-85
2023/03/30 05:56:49;;;;;;;17.80;4.00;;;10.90;99.90;;;;;;5075450;28;20256;-85
2023/03/30 05:59:16;;;;;;;16.85;4.88;;;10.90;99.90;;;;;;5078864;28;20233;-86
2023/03/30 06:01:44;;;;;;;19.30;4.57;;;10.90;99.90;;;;;;5076492;28;20201;-85
2023/03/30 06:04:11;;;;;;;17.05;4.32;;;11.10;99.90;;;;;;5086371;28;20261;-86
2023/03/30 06:06:38;;;;;;;15.50;4.53;;;11.00;99.90;;;;;;5070407;28;20537;-88
2023/03/30 06:09:08;;;;;;;15.10;4.32;;;10.90;99.90;;;;;;5078046;28;20205;-87
2023/03/30 06:11:36;;;;;;;14.10;4.07;;;10.90;99.90;;;;;;5081001;28;20197;-86
2023/03/30 06:14:03;;;;;;;15.85;4.53;;;10.90;99.90;;;;;;5089681;28;20200;-89
2023/03/30 06:16:30;;;;;;;14.43;4.68;;;10.90;99.90;;;;;;5085448;28;20201;-88
2023/03/30 06:18:57;;;;;;;17.27;4.25;;;10.80;99.90;;;;;;5061130;28;20243;-87
2023/03/30 06:21:24;;;;;;;17.75;4.05;;;10.90;99.90;;;;;;5078362;28;20245;-87
2023/03/30 06:23:53;;;;;;;17.58;4.47;;;10.90;99.90;;;;;;5081429;28;20203;-87
2023/03/30 06:26:23;;;;;;;14.73;4.30;;;11.00;99.90;;;;;;5074414;28;20205;-87
2023/03/30 06:29:09;;;;;;;15.98;4.32;;;11.10;99.90;;;;;;5082870;28;20201;-87
2023/03/30 06:31:36;;;;;;;10.40;3.90;;;11.10;99.90;;;;;;5084321;28;20223;-87
2023/03/30 06:34:04;;;;;;;11.05;3.42;;;11.10;99.90;;;;;;5065586;28;20593;-88
2023/03/30 06:36:31;;;;;;;14.38;4.18;;;11.10;99.90;;;;;;5070600;28;20197;-88
2023/03/30 06:38:58;;;;;;;14.43;4.00;;;11.20;99.90;;;;;;5079942;28;20299;-88
2023/03/30 06:44:14;;;;;;;17.58;3.75;;;11.10;99.90;;;;;;5075362;28;20201;-88
2023/03/30 06:46:43;;;;;;;14.57;3.92;;;11.20;99.90;;;;;;5093786;28;20694;-88
2023/03/30 06:49:12;;;;;;;14.43;3.95;;;11.20;99.90;;;;;;5087483;28;20631;-87
2023/03/30 06:51:40;;;;;;;13.65;3.58;;;11.30;99.90;;;;;;5080773;28;20246;-88
2023/03/30 06:54:07;;;;;;;14.95;3.92;;;11.40;99.90;;;;;;5093645;28;20616;-88
2023/03/30 06:56:38;;;;;;;12.80;3.88;;;11.50;99.90;;;;;;5076006;28;20200;-87
2023/03/30 07:01:58;;;;;;;11.93;3.97;;;11.40;99.90;;;;;;5062900;28;20208;-88
2023/03/30 07:04:25;;;;;;;12.73;3.67;;;11.50;99.90;;;;;;5077279;28;20682;-88
2023/03/30 07:06:56;;;;;;;16.75;3.72;;;11.40;99.90;;;;;;5075533;28;20201;-87
2023/03/30 07:09:23;;;;;;;12.38;3.60;;;11.40;99.90;;;;;;5079451;28;20235;-86
2023/03/30 07:11:52;;;;;;;15.50;3.58;;;11.40;99.90;;;;;;5068867;28;20200;-87
2023/03/30 07:14:19;;;;;;;10.98;3.60;;;11.40;99.90;;;;;;5080594;28;20680;-86
2023/03/30 07:16:47;;;;;;;11.13;3.22;;;11.40;99.90;;;;;;5088036;28;20246;-87
2023/03/30 07:19:15;;;;;;;12.98;3.35;;;11.50;99.90;;;;;;5092333;28;20213;-88
2023/03/30 07:21:42;;;;;;;13.18;3.50;;;11.70;99.90;;;;;;5069922;28;20783;-88
2023/03/30 07:24:09;;;;;;;21.48;3.83;;;11.70;99.90;;;;;;5085557;28;20204;-87
2023/03/30 07:26:36;;;;;;;10.20;3.25;;;11.80;99.90;;;;;;5080378;28;20193;-88
2023/03/30 07:29:06;;;;;;;12.98;3.20;;;12.00;99.90;;;;;;5076869;28;20205;-88
2023/03/30 07:31:33;;;;;;;15.57;3.15;;;12.20;99.90;;;;;;5073019;28;20232;-88
2023/03/30 07:34:01;;;;;;;14.73;3.60;;;12.20;99.90;;;;;;5078246;28;20201;-88
2023/03/30 07:36:28;;;;;;;8.75;3.13;;;12.40;99.90;;;;;;5077835;28;20285;-88
2023/03/30 07:38:57;;;;;;;13.30;3.45;;;12.60;99.90;;;;;;5082746;28;20227;-88
2023/03/30 07:41:24;;;;;;;14.55;3.05;;;12.80;99.90;;;;;;5088813;28;20626;-88
2023/03/30 07:43:51;;;;;;;11.93;3.38;;;12.70;99.90;;;;;;5086437;28;20219;-87
2023/03/30 07:46:20;;;;;;;15.02;3.35;;;12.70;99.90;;;;;;5079633;28;20204;-88
2023/03/30 07:48:46;;;;;;;9.80;2.83;;;12.70;99.90;;;;;;5087581;28;20240;-88
2023/03/30 07:51:13;;;;;;;7.82;2.85;;;12.60;99.90;;;;;;5076736;28;20255;-88
2023/03/30 07:53:41;;;;;;;16.23;3.40;;;12.70;99.90;;;;;;5081754;28;20200;-88
2023/03/30 07:56:08;;;;;;;9.82;3.17;;;12.80;99.90;;;;;;5087075;28;20560;-87
2023/03/30 07:58:35;;;;;;;13.73;3.05;;;12.90;99.90;;;;;;5081164;28;20221;-87
2023/03/30 08:01:09;;;;;;;15.63;3.13;;;12.80;99.90;;;;;;5077309;28;20292;-88
2023/03/30 08:03:38;;;;;;;15.45;3.40;;;12.90;99.90;;;;;;5089279;28;20209;-86
2023/03/30 08:06:05;;;;;;;16.08;3.63;;;12.80;99.90;;;;;;5091337;28;20201;-88
2023/03/30 08:08:33;;;;;;;13.45;3.72;;;12.80;99.90;;;;;;5085629;28;20197;-87
2023/03/30 08:11:00;;;;;;;12.80;3.40;;;12.60;99.90;;;;;;5082880;28;20232;-88
2023/03/30 08:13:28;;;;;;;14.15;3.47;;;12.70;99.90;;;;;;5083750;28;20208;-88
2023/03/30 08:15:56;;;;;;;12.70;3.38;;;12.90;99.90;;;;;;5086677;28;20618;-87
2023/03/30 08:18:23;;;;;;;12.70;3.20;;;13.20;99.90;;;;;;5087787;28;20221;-88
2023/03/30 08:20:54;;;;;;;15.73;3.95;;;13.10;99.90;;;;;;5089117;28;20191;-88
2023/03/30 08:23:24;;;;;;;12.02;3.50;;;13.20;99.90;;;;;;5103932;28;20224;-87
2023/03/30 08:25:52;;;;;;;13.35;3.33;;;13.40;99.90;;;;;;5117435;28;20191;-87
2023/03/30 08:28:20;;;;;;;10.80;2.92;;;13.40;99.70;;;;;;5105617;28;20200;-88
2023/03/30 08:30:47;;;;;;;13.85;3.13;;;13.40;99.90;;;;;;5085017;28;20205;-88
2023/03/30 08:33:14;;;;;;;11.07;3.17;;;13.70;99.90;;;;;;5087873;28;20760;-88
2023/03/30 08:35:43;;;;;;;9.27;3.38;;;13.80;99.10;;;;;;5092657;28;20239;-88
2023/03/30 08:38:16;;;;;;;10.32;3.35;;;13.90;99.00;;;;;;5081281;28;20197;-88
2023/03/30 08:40:43;;;;;;;13.38;3.42;;;14.30;98.80;;;;;;5082283;28;20189;-87
2023/03/30 08:43:25;;;;;;;12.95;3.40;;;14.30;97.60;;;;;;5074475;28;20729;-88
2023/03/30 08:45:52;;;;;;;11.98;3.40;;;14.50;97.30;;;;;;5088961;28;20197;-88
2023/03/30 08:48:22;;;;;;;10.15;3.22;;;14.60;96.80;;;;;;5083615;28;20209;-87
2023/03/30 08:50:57;;;;;;;9.48;2.97;;;14.60;97.70;;;;;;5082077;28;20193;-87
2023/03/30 08:53:27;;;;;;;11.55;3.40;;;14.20;96.70;;;;;;5086936;28;20200;-88
2023/03/30 08:55:59;;;;;;;9.32;3.35;;;14.00;97.50;;;;;;5078831;28;20205;-88
2023/03/30 08:58:34;;;;;;;14.07;2.85;;;14.00;97.90;;;;;;5073595;28;20197;-88
2023/03/30 09:01:11;;;;;;;12.77;2.97;;;13.90;98.40;;;;;;5082301;28;20312;-88
2023/03/30 09:03:42;;;;;;;11.35;3.15;;;14.00;98.30;;;;;;5089926;28;20640;-87
2023/03/30 09:06:19;;;;;;;10.43;3.10;;;14.20;98.30;;;;;;5090116;28;20200;-89
2023/03/30 09:08:48;;;;;;;13.20;3.38;;;14.40;97.80;;;;;;5077357;28;20192;-88
2023/03/30 09:11:25;;;;;;;17.25;3.47;;;14.30;98.00;;;;;;5085161;28;20197;-88
2023/03/30 09:13:52;;;;;;;10.20;3.17;;;14.50;98.40;;;;;;5087128;28;20192;-88
2023/03/30 09:16:28;;;;;;;10.73;3.22;;;14.70;98.20;;;;;;5087483;28;20208;-88
2023/03/30 09:18:58;;;;;;;11.00;3.40;;;14.90;97.80;;;;;;5082444;28;20212;-88
2023/03/30 09:21:28;;;;;;;7.18;3.35;;;15.10;97.90;;;;;;5080849;28;20201;-87
2023/03/30 09:23:58;;;;;;;10.82;3.95;;;15.20;97.20;;;;;;5076332;28;20226;-88
2023/03/30 09:26:35;;;;;;;17.70;8.30;;;15.50;96.30;;;;;;5082224;28;20208;-88
2023/03/30 09:29:07;;;;;;;9.77;2.80;;;15.70;96.00;;;;;;5089726;28;20196;-88
2023/03/30 09:31:42;;;;;;;12.70;4.15;;;15.70;96.30;;;;;;5075768;28;20204;-88
2023/03/30 09:34:24;;;;;;;13.35;4.07;;;15.90;95.60;;;;;;5072851;28;20193;-89
2023/03/30 09:36:56;;;;;;;14.93;4.18;;;16.40;95.60;;;;;;5078068;28;20233;-88
2023/03/30 09:39:27;;;;;;;10.35;3.90;;;17.00;91.10;;;;;;5073571;28;20225;-85
2023/03/30 09:42:13;;;;;;;9.13;2.95;;;17.60;88.30;;;;;;5076939;28;20228;-86
2023/03/30 09:44:46;;;;;;;12.63;3.17;;;18.10;86.30;;;;;;5077709;28;20655;-86
2023/03/30 09:47:23;;;;;;;8.68;2.70;;;18.20;79.50;;;;;;5084826;28;20208;-86
2023/03/30 09:49:56;;;;;;;15.85;4.05;;;18.30;77.20;;;;;;5078745;28;20649;-86
2023/03/30 09:52:26;;;;;;;16.25;8.15;;;18.10;71.40;;;;;;5076996;28;20190;-86
2023/03/30 09:54:54;;;;;;;11.25;4.30;;;18.10;75.10;;;;;;5077644;28;20216;-87
2023/03/30 09:57:27;;;;;;;10.38;2.90;;;18.10;70.40;;;;;;5082756;28;20196;-86
2023/03/30 09:59:55;;;;;;;9.25;3.00;;;18.10;69.10;;;;;;5080211;28;20221;-86
2023/03/30 10:02:23;;;;;;;13.02;2.70;;;18.00;63.10;;;;;;5084843;28;20215;-86
2023/03/30 10:05:05;;;;;;;8.27;2.72;;;17.80;64.30;;;;;;5086998;28;20195;-86
2023/03/30 10:07:35;;;;;;;13.15;2.88;;;17.90;63.60;;;;;;5083320;28;20193;-88
2023/03/30 10:10:15;;;;;;;13.20;2.80;;;17.80;64.70;;;;;;5081643;28;20576;-89
2023/03/30 10:12:43;;;;;;;15.13;2.95;;;17.70;63.30;;;;;;5077593;28;20200;-88
2023/03/30 10:15:17;;;;;;;9.30;3.08;;;17.50;63.10;;;;;;5075931;28;20211;-87
2023/03/30 10:17:46;;;;;;;13.93;3.60;;;17.50;70.00;;;;;;5075086;28;20250;-88
2023/03/30 10:20:24;;;;;;;11.55;3.15;;;17.70;65.00;;;;;;5080162;28;20256;-88
2023/03/30 10:22:53;;;;;;;10.30;3.08;;;18.00;63.60;;;;;;5075385;28;20270;-88
2023/03/30 10:25:24;;;;;;;13.75;2.92;;;18.30;57.70;;;;;;5078206;28;20821;-88
2023/03/30 10:27:54;;;;;;;8.43;2.67;;;18.30;54.40;;;;;;5077050;28;20204;-86
2023/03/30 10:30:24;;;;;;;9.45;3.33;;;18.40;54.50;;;;;;5082904;28;20664;-85
2023/03/30 10:32:52;;;;;;;11.73;3.08;;;18.60;49.90;;;;;;5085380;28;20203;-86
2023/03/30 10:35:23;;;;;;;10.98;3.40;;;18.90;42.90;;;;;;5081815;28;20196;-86
2023/03/30 10:37:52;;;;;;;20.98;3.65;;;18.80;44.00;;;;;;5081884;28;20334;-88
2023/03/30 10:40:26;;;;;;;9.45;3.00;;;18.70;41.10;;;;;;5080349;28;20711;-85
2023/03/30 10:42:56;;;;;;;10.38;3.80;;;18.80;46.30;;;;;;5076901;28;20197;-91
2023/03/30 10:45:32;;;;;;;14.45;3.08;;;18.70;41.50;;;;;;5080043;28;20280;-87
2023/03/30 10:48:22;;;;;;;13.55;3.30;;;18.20;41.60;;;;;;5086386;28;20197;-87
2023/03/30 10:50:58;;;;;;;11.40;3.00;;;17.90;44.10;;;;;;5073383;28;20649;-87
2023/03/30 10:53:33;;;;;;;19.73;3.53;;;17.40;46.10;;;;;;5076539;28;20204;-89
2023/03/30 10:56:09;;;;;;;18.63;3.47;;;17.20;50.70;;;;;;5077661;28;20579;-90
2023/03/30 10:58:52;;;;;;;16.50;3.50;;;16.90;53.10;;;;;;5079329;28;20648;-89
2023/03/30 11:01:28;;;;;;;15.75;4.22;;;16.70;54.70;;;;;;5088658;28;20203;-91
2023/03/30 11:04:03;;;;;;;16.83;3.53;;;16.50;61.80;;;;;;5084763;28;20196;-91
2023/03/30 11:06:34;;;;;;;16.10;3.35;;;16.40;70.50;;;;;;5087123;28;20205;-91
2023/03/30 11:09:04;;;;;;;13.45;3.53;;;16.40;75.00;;;;;;5093416;28;20284;-91
2023/03/30 11:11:37;;;;;;;11.30;3.10;;;16.30;77.40;;;;;;5084570;28;20239;-92
2023/03/30 11:14:10;;;;;;;17.05;3.90;;;16.20;78.20;;;;;;5090493;28;20193;-92
2023/03/30 11:16:46;;;;;;;15.70;3.20;;;16.10;79.80;;;;;;5085606;28;20194;-87
2023/03/30 11:19:18;;;;;;;10.98;3.55;;;15.90;79.90;;;;;;5083808;28;20562;-87
2023/03/30 11:21:55;;;;;;;15.93;4.90;;;15.70;82.40;;;;;;5088216;28;20215;-87
2023/03/30 11:24:24;;;;;;;16.23;4.63;;;15.70;85.50;;;;;;5083437;28;20204;-86
2023/03/30 11:26:59;;;;;;;11.45;3.22;;;15.60;87.20;;;;;;5084176;28;20189;-88
2023/03/30 11:29:33;;;;;;;12.75;4.03;;;15.60;89.30;;;;;;5083947;28;20219;-87
2023/03/30 11:32:14;;;;;;;15.02;4.68;;;15.40;91.50;;;;;;5083071;28;20197;-87
2023/03/30 11:34:53;;;;;;;10.90;3.78;;;15.20;91.50;;;;;;5084418;28;20641;-88
2023/03/30 11:37:28;;;;;;;12.43;3.40;;;15.00;91.80;;;;;;5092897;28;20192;-87
2023/03/30 11:40:00;;;;;;;9.90;3.10;;;14.60;92.60;;;;;;5091840;28;20219;-89
2023/03/30 11:42:31;;;;;;;11.27;4.47;;;14.30;92.70;;;;;;5096989;28;20600;-88
2023/03/30 11:44:58;;;;;;;13.07;5.47;;;14.10;93.90;;;;;;5097475;28;20215;-87
2023/03/30 11:47:46;;;;;;;9.65;3.38;;;14.00;94.00;;;;;;5091830;28;20188;-88
2023/03/30 11:50:26;;;;;;;7.95;3.50;;;14.10;93.80;;;;;;5089905;28;20325;-87
2023/03/30 11:53:05;;;;;;;9.48;3.10;;;14.10;93.90;;;;;;5085991;28;20209;-87
2023/03/30 11:56:00;;;;;;;11.07;3.10;;;14.20;93.10;;;;;;5085808;28;20273;-87
2023/03/30 12:01:37;;;;;;;9.90;2.97;;;14.00;92.50;;;;;;5129289;27;20576;-87
2023/03/30 12:04:08;;;;;;;6.43;2.60;;;13.30;93.70;;;;;;5129976;27;20280;-88
2023/03/30 12:06:38;;;;;;;8.40;2.92;;;13.20;95.20;;;;;;5128037;27;20192;-86
2023/03/30 12:09:24;;;;;;;10.75;3.10;;;12.90;96.00;;;;;;5124687;28;20183;-87
2023/03/30 12:12:01;;;;;;;10.07;3.20;;;12.60;97.80;;;;;;5123254;27;20196;-88
2023/03/30 12:14:39;;;;;;;8.32;3.00;;;12.30;98.80;;;;;;5125366;28;20198;-87
2023/03/30 12:17:24;;;;;;;6.30;2.83;;;12.20;99.80;;;;;;5122869;27;20218;-87
2023/03/30 12:19:57;;;;;;;11.02;3.35;;;12.00;99.90;;;;;;5125092;27;20266;-87
2023/03/30 12:22:31;;;;;;;7.70;2.63;;;11.90;99.90;;;;;;5123039;27;20258;-88
2023/03/30 12:25:05;;;;;;;10.00;3.00;;;11.70;99.90;;;;;;5122236;28;20202;-88
2023/03/30 12:27:35;;;;;;;5.95;2.40;;;11.70;99.90;;;;;;5125293;27;20190;-88
2023/03/30 12:30:13;;;;;;;8.38;2.97;;;11.60;99.90;;;;;;5121621;28;20245;-86
2023/03/30 12:32:58;;;;;;;7.47;2.50;;;11.50;99.90;;;;;;5121131;27;20219;-86
2023/03/30 12:36:02;;;;;;;6.03;2.95;;;11.50;99.90;;;;;;5128625;27;20236;-86
2023/03/30 12:38:38;;;;;;;6.93;2.88;;;11.40;99.90;;;;;;5128308;27;20286;-86
2023/03/30 12:41:13;;;;;;;5.40;2.92;;;11.50;99.90;;;;;;5121431;27;20612;-87
2023/03/30 12:44:02;;;;;;;7.70;3.17;;;11.40;99.90;;;;;;5123300;27;20188;-87
2023/03/30 12:46:36;;;;;;;6.63;2.92;;;11.50;99.90;;;;;;5121776;28;20195;-87
2023/03/30 12:49:17;;;;;;;6.10;2.50;;;11.50;99.90;;;;;;5100522;28;20294;-88
2023/03/30 12:51:56;;;;;;;5.40;2.42;;;11.60;99.90;;;;;;5122650;27;20192;-88
2023/03/30 12:54:46;;;;;;;7.07;2.60;;;11.60;99.90;;;;;;5112504;27;20203;-88
2023/03/30 12:57:27;;;;;;;6.00;2.55;;;11.60;99.90;;;;;;5104550;27;20200;-87
2023/03/30 13:00:26;;;;;;;6.15;2.83;;;11.60;99.90;;;;;;5133856;27;20223;-88
2023/03/30 13:05:58;;;;;;;4.95;2.53;;;11.50;99.90;;;;;;5118612;28;20590;-88
2023/03/30 13:08:31;;;;;;;5.82;2.50;;;11.50;99.90;;;;;;5123503;27;20222;-89
2023/03/30 13:11:09;;;;;;;5.13;2.17;;;11.50;99.90;;;;;;5128330;27;20207;-88
2023/03/30 13:13:54;;;;;;;4.20;2.13;;;11.40;99.90;;;;;;5091240;28;20199;-88
2023/03/30 13:17:01;;;;;;;5.78;2.50;;;11.40;99.90;;;;;;5107987;27;20286;-86
2023/03/30 13:19:40;;;;;;;6.53;2.30;;;11.20;99.90;;;;;;5096415;27;20192;-89
2023/03/30 13:22:26;;;;;;;5.82;2.20;;;11.20;99.90;;;;;;5105090;28;20209;-87
2023/03/30 13:24:58;;;;;;;6.00;2.42;;;11.20;99.90;;;;;;5101398;28;20196;-89